sensor_id;sensor_type;location;lat;lon;timestamp;pressure;altitude;pressure_sealevel;temperature;humidity
8162;BME280;16778;48.154;15.094;2022-07-19T00:00:25;99390.88;;;13.72;100.00
8162;BME280;16778;48.154;15.094;2022-07-19T00:02:52;99386.06;;;13.68;100.00
8162;BME280;16778;48.154;15.094;2022-07-19T00:05:19;99387.59;;;13.64;100.00
8162;BME280;16778;48.154;15.094;2022-07-19T00:07:46;99387.38;;;13.59;100.00
8162;BME280;16778;48.154;15.094;2022-07-19T00:10:15;99380.72;;;13.55;100.00
8162;BME280;16778;48.154;15.094;2022-07-19T00:12:42;99389.09;;;13.53;100.00
8162;BME280;16778;48.154;15.094;2022-07-19T00:15:11;99386.81;;;13.50;100.00
8162;BME280;16778;48.154;15.094;2022-07-19T00:17:45;99391.47;;;13.50;100.00
8162;BME280;16778;48.154;15.094;2022-07-19T00:20:14;99389.34;;;13.52;100.00
8162;BME280;16778;48.154;15.094;2022-07-19T00:22:41;99389.75;;;13.55;100.00
8162;BME280;16778;48.154;15.094;2022-07-19T00:25:07;99388.63;;;13.63;100.00
8162;BME280;16778;48.154;15.094;2022-07-19T00:27:34;99389.22;;;13.65;100.00
8162;BME280;16778;48.154;15.094;2022-07-19T00:30:00;99393.03;;;13.64;100.00
8162;BME280;16778;48.154;15.094;2022-07-19T00:32:26;99385.47;;;13.66;100.00
8162;BME280;16778;48.154;15.094;2022-07-19T00:34:52;99385.66;;;13.64;100.00
8162;BME280;16778;48.154;15.094;2022-07-19T00:37:17;99388.63;;;13.63;100.00
8162;BME280;16778;48.154;15.094;2022-07-19T00:39:43;99389.91;;;13.60;100.00
8162;BME280;16778;48.154;15.094;2022-07-19T00:42:09;99393.31;;;13.56;100.00
8162;BME280;16778;48.154;15.094;2022-07-19T00:44:35;99387.66;;;13.51;100.00
8162;BME280;16778;48.154;15.094;2022-07-19T00:47:03;99390.00;;;13.47;100.00
8162;BME280;16778;48.154;15.094;2022-07-19T00:49:31;99384.34;;;13.42;100.00
8162;BME280;16778;48.154;15.094;2022-07-19T00:51:57;99386.47;;;13.40;100.00
8162;BME280;16778;48.154;15.094;2022-07-19T00:54:26;99398.44;;;13.39;100.00
8162;BME280;16778;48.154;15.094;2022-07-19T00:56:53;99391.75;;;13.35;100.00
8162;BME280;16778;48.154;15.094;2022-07-19T00:59:20;99392.19;;;13.32;100.00
8162;BME280;16778;48.154;15.094;2022-07-19T01:01:46;99391.38;;;13.25;100.00
8162;BME280;16778;48.154;15.094;2022-07-19T01:04:12;99384.72;;;13.21;100.00
8162;BME280;16778;48.154;15.094;2022-07-19T01:06:41;99385.16;;;13.18;100.00
8162;BME280;16778;48.154;15.094;2022-07-19T01:09:07;99376.78;;;13.13;100.00
8162;BME280;16778;48.154;15.094;2022-07-19T01:11:33;99375.78;;;13.07;100.00
8162;BME280;16778;48.154;15.094;2022-07-19T01:13:59;99378.06;;;13.04;100.00
8162;BME280;16778;48.154;15.094;2022-07-19T01:16:25;99380.38;;;13.00;100.00
8162;BME280;16778;48.154;15.094;2022-07-19T01:18:51;99385.00;;;13.00;100.00
8162;BME280;16778;48.154;15.094;2022-07-19T01:21:24;99374.09;;;13.00;100.00
8162;BME280;16778;48.154;15.094;2022-07-19T01:23:51;99380.00;;;12.97;100.00
8162;BME280;16778;48.154;15.094;2022-07-19T01:26:17;99379.78;;;12.92;100.00
8162;BME280;16778;48.154;15.094;2022-07-19T01:28:44;99383.16;;;12.94;100.00
8162;BME280;16778;48.154;15.094;2022-07-19T01:31:10;99383.97;;;12.94;100.00
8162;BME280;16778;48.154;15.094;2022-07-19T01:33:42;99377.50;;;12.89;100.00
8162;BME280;16778;48.154;15.094;2022-07-19T01:36:08;99385.06;;;12.87;100.00
8162;BME280;16778;48.154;15.094;2022-07-19T01:38:35;99380.44;;;12.87;100.00
8162;BME280;16778;48.154;15.094;2022-07-19T01:41:01;99381.72;;;12.85;100.00
8162;BME280;16778;48.154;15.094;2022-07-19T01:43:27;99374.19;;;12.80;100.00
8162;BME280;16778;48.154;15.094;2022-07-19T01:45:53;99369.78;;;12.79;100.00
8162;BME280;16778;48.154;15.094;2022-07-19T01:48:20;99372.53;;;12.72;100.00
8162;BME280;16778;48.154;15.094;2022-07-19T01:50:46;99372.97;;;12.69;100.00
8162;BME280;16778;48.154;15.094;2022-07-19T01:53:12;99379.50;;;12.68;100.00
8162;BME280;16778;48.154;15.094;2022-07-19T01:55:38;99372.19;;;12.62;100.00
8162;BME280;16778;48.154;15.094;2022-07-19T01:58:04;99371.53;;;12.60;100.00
8162;BME280;16778;48.154;15.094;2022-07-19T02:00:30;99377.22;;;12.59;100.00
8162;BME280;16778;48.154;15.094;2022-07-19T02:02:56;99370.75;;;12.53;100.00
8162;BME280;16778;48.154;15.094;2022-07-19T02:05:22;99363.41;;;12.54;100.00
8162;BME280;16778;48.154;15.094;2022-07-19T02:07:48;99357.53;;;12.50;100.00
8162;BME280;16778;48.154;15.094;2022-07-19T02:10:15;99356.69;;;12.50;100.00
8162;BME280;16778;48.154;15.094;2022-07-19T02:12:41;99363.22;;;12.49;100.00
8162;BME280;16778;48.154;15.094;2022-07-19T02:15:08;99365.28;;;12.47;100.00
8162;BME280;16778;48.154;15.094;2022-07-19T02:17:34;99372.00;;;12.44;100.00
8162;BME280;16778;48.154;15.094;2022-07-19T02:20:00;99369.94;;;12.40;100.00
8162;BME280;16778;48.154;15.094;2022-07-19T02:22:26;99374.78;;;12.38;100.00
8162;BME280;16778;48.154;15.094;2022-07-19T02:24:52;99372.06;;;12.38;100.00
8162;BME280;16778;48.154;15.094;2022-07-19T02:27:18;99370.19;;;12.32;100.00
8162;BME280;16778;48.154;15.094;2022-07-19T02:29:43;99369.09;;;12.33;100.00
8162;BME280;16778;48.154;15.094;2022-07-19T02:32:09;99370.38;;;12.30;100.00
8162;BME280;16778;48.154;15.094;2022-07-19T02:34:35;99366.81;;;12.30;100.00
8162;BME280;16778;48.154;15.094;2022-07-19T02:37:01;99376.25;;;12.27;100.00
8162;BME280;16778;48.154;15.094;2022-07-19T02:39:27;99373.94;;;12.24;100.00
8162;BME280;16778;48.154;15.094;2022-07-19T02:41:53;99373.34;;;12.22;100.00
8162;BME280;16778;48.154;15.094;2022-07-19T02:44:19;99379.00;;;12.20;100.00
8162;BME280;16778;48.154;15.094;2022-07-19T02:46:45;99381.09;;;12.18;100.00
8162;BME280;16778;48.154;15.094;2022-07-19T02:49:11;99375.88;;;12.17;100.00
8162;BME280;16778;48.154;15.094;2022-07-19T02:51:36;99369.38;;;12.18;100.00
8162;BME280;16778;48.154;15.094;2022-07-19T02:54:02;99375.25;;;12.15;100.00
8162;BME280;16778;48.154;15.094;2022-07-19T02:56:28;99380.03;;;12.13;100.00
8162;BME280;16778;48.154;15.094;2022-07-19T02:58:54;99378.16;;;12.13;100.00
8162;BME280;16778;48.154;15.094;2022-07-19T03:01:20;99370.00;;;12.13;100.00
8162;BME280;16778;48.154;15.094;2022-07-19T03:03:46;99373.78;;;12.12;100.00
8162;BME280;16778;48.154;15.094;2022-07-19T03:06:18;99379.84;;;12.08;100.00
8162;BME280;16778;48.154;15.094;2022-07-19T03:08:45;99380.28;;;12.05;100.00
8162;BME280;16778;48.154;15.094;2022-07-19T03:11:12;99371.91;;;12.06;100.00
8162;BME280;16778;48.154;15.094;2022-07-19T03:13:38;99375.47;;;12.07;100.00
8162;BME280;16778;48.154;15.094;2022-07-19T03:16:05;99377.78;;;12.03;100.00
8162;BME280;16778;48.154;15.094;2022-07-19T03:18:31;99383.41;;;12.02;100.00
8162;BME280;16778;48.154;15.094;2022-07-19T03:20:57;99384.47;;;12.01;100.00
8162;BME280;16778;48.154;15.094;2022-07-19T03:23:33;99389.09;;;12.00;100.00
8162;BME280;16778;48.154;15.094;2022-07-19T03:26:00;99375.91;;;12.04;100.00
8162;BME280;16778;48.154;15.094;2022-07-19T03:28:26;99393.03;;;12.04;100.00
8162;BME280;16778;48.154;15.094;2022-07-19T03:30:52;99390.75;;;12.08;100.00
8162;BME280;16778;48.154;15.094;2022-07-19T03:33:18;99381.31;;;12.10;100.00
8162;BME280;16778;48.154;15.094;2022-07-19T03:35:45;99398.69;;;12.16;100.00
8162;BME280;16778;48.154;15.094;2022-07-19T03:38:12;99395.53;;;12.19;100.00
8162;BME280;16778;48.154;15.094;2022-07-19T03:40:39;99393.44;;;12.21;100.00
8162;BME280;16778;48.154;15.094;2022-07-19T03:43:06;99396.38;;;12.26;100.00
8162;BME280;16778;48.154;15.094;2022-07-19T03:45:32;99399.31;;;12.31;100.00
8162;BME280;16778;48.154;15.094;2022-07-19T03:47:58;99398.88;;;12.34;100.00
8162;BME280;16778;48.154;15.094;2022-07-19T03:50:24;99399.06;;;12.39;100.00
8162;BME280;16778;48.154;15.094;2022-07-19T03:52:50;99396.53;;;12.44;100.00
8162;BME280;16778;48.154;15.094;2022-07-19T03:55:16;99405.97;;;12.48;100.00
8162;BME280;16778;48.154;15.094;2022-07-19T03:57:42;99401.31;;;12.55;100.00
8162;BME280;16778;48.154;15.094;2022-07-19T04:00:08;99403.44;;;12.60;100.00
8162;BME280;16778;48.154;15.094;2022-07-19T04:02:34;99402.53;;;12.66;100.00
8162;BME280;16778;48.154;15.094;2022-07-19T04:05:00;99415.13;;;12.73;100.00
8162;BME280;16778;48.154;15.094;2022-07-19T04:07:26;99414.25;;;12.79;100.00
8162;BME280;16778;48.154;15.094;2022-07-19T04:09:51;99407.91;;;12.86;100.00
8162;BME280;16778;48.154;15.094;2022-07-19T04:12:17;99407.06;;;12.92;100.00
8162;BME280;16778;48.154;15.094;2022-07-19T04:14:43;99407.28;;;12.97;100.00
8162;BME280;16778;48.154;15.094;2022-07-19T04:17:09;99416.00;;;13.05;100.00
8162;BME280;16778;48.154;15.094;2022-07-19T04:19:35;99417.69;;;13.13;100.00
8162;BME280;16778;48.154;15.094;2022-07-19T04:22:01;99422.91;;;13.21;100.00
8162;BME280;16778;48.154;15.094;2022-07-19T04:24:27;99423.50;;;13.29;100.00
8162;BME280;16778;48.154;15.094;2022-07-19T04:26:52;99429.72;;;13.36;100.00
8162;BME280;16778;48.154;15.094;2022-07-19T04:29:19;99426.75;;;13.45;100.00
8162;BME280;16778;48.154;15.094;2022-07-19T04:31:45;99431.72;;;13.54;100.00
8162;BME280;16778;48.154;15.094;2022-07-19T04:34:11;99424.97;;;13.63;100.00
8162;BME280;16778;48.154;15.094;2022-07-19T04:36:36;99421.94;;;13.71;100.00
8162;BME280;16778;48.154;15.094;2022-07-19T04:39:03;99428.81;;;13.80;100.00
8162;BME280;16778;48.154;15.094;2022-07-19T04:41:29;99432.28;;;13.94;100.00
8162;BME280;16778;48.154;15.094;2022-07-19T04:43:55;99439.06;;;14.10;100.00
8162;BME280;16778;48.154;15.094;2022-07-19T04:46:20;99440.63;;;14.24;100.00
8162;BME280;16778;48.154;15.094;2022-07-19T04:48:46;99437.28;;;14.46;100.00
8162;BME280;16778;48.154;15.094;2022-07-19T04:51:12;99441.50;;;14.67;100.00
8162;BME280;16778;48.154;15.094;2022-07-19T04:53:38;99448.50;;;14.81;100.00
8162;BME280;16778;48.154;15.094;2022-07-19T04:56:04;99451.91;;;14.95;100.00
8162;BME280;16778;48.154;15.094;2022-07-19T04:58:30;99444.06;;;15.17;100.00
8162;BME280;16778;48.154;15.094;2022-07-19T05:00:56;99447.81;;;15.34;100.00
8162;BME280;16778;48.154;15.094;2022-07-19T05:03:22;99437.69;;;15.52;100.00
8162;BME280;16778;48.154;15.094;2022-07-19T05:05:48;99448.97;;;15.74;100.00
8162;BME280;16778;48.154;15.094;2022-07-19T05:08:14;99444.50;;;15.91;100.00
8162;BME280;16778;48.154;15.094;2022-07-19T05:10:41;99446.28;;;16.09;100.00
8162;BME280;16778;48.154;15.094;2022-07-19T05:13:06;99442.88;;;16.25;100.00
8162;BME280;16778;48.154;15.094;2022-07-19T05:15:32;99441.31;;;16.41;100.00
8162;BME280;16778;48.154;15.094;2022-07-19T05:17:58;99439.31;;;16.59;100.00
8162;BME280;16778;48.154;15.094;2022-07-19T05:20:24;99443.94;;;16.82;100.00
8162;BME280;16778;48.154;15.094;2022-07-19T05:22:50;99444.41;;;17.02;100.00
8162;BME280;16778;48.154;15.094;2022-07-19T05:25:16;99445.06;;;17.21;100.00
8162;BME280;16778;48.154;15.094;2022-07-19T05:27:42;99445.72;;;17.39;100.00
8162;BME280;16778;48.154;15.094;2022-07-19T05:30:10;99447.56;;;17.62;100.00
8162;BME280;16778;48.154;15.094;2022-07-19T05:32:37;99445.69;;;17.79;100.00
8162;BME280;16778;48.154;15.094;2022-07-19T05:35:04;99446.78;;;17.95;100.00
8162;BME280;16778;48.154;15.094;2022-07-19T05:37:30;99449.69;;;18.05;100.00
8162;BME280;16778;48.154;15.094;2022-07-19T05:39:56;99443.13;;;18.23;100.00
8162;BME280;16778;48.154;15.094;2022-07-19T05:42:21;99450.53;;;18.39;100.00
8162;BME280;16778;48.154;15.094;2022-07-19T05:44:48;99445.06;;;18.56;100.00
8162;BME280;16778;48.154;15.094;2022-07-19T05:47:14;99438.38;;;18.68;100.00
8162;BME280;16778;48.154;15.094;2022-07-19T05:49:41;99452.59;;;18.82;100.00
8162;BME280;16778;48.154;15.094;2022-07-19T05:52:07;99440.97;;;18.96;100.00
8162;BME280;16778;48.154;15.094;2022-07-19T05:54:32;99437.09;;;19.14;100.00
8162;BME280;16778;48.154;15.094;2022-07-19T05:56:58;99441.53;;;19.20;100.00
8162;BME280;16778;48.154;15.094;2022-07-19T05:59:24;99444.25;;;19.37;100.00
8162;BME280;16778;48.154;15.094;2022-07-19T06:01:50;99450.78;;;19.52;100.00
8162;BME280;16778;48.154;15.094;2022-07-19T06:04:16;99450.13;;;19.67;100.00
8162;BME280;16778;48.154;15.094;2022-07-19T06:06:42;99450.50;;;19.76;100.00
8162;BME280;16778;48.154;15.094;2022-07-19T06:09:08;99444.28;;;19.90;100.00
8162;BME280;16778;48.154;15.094;2022-07-19T06:11:38;99446.13;;;20.06;100.00
8162;BME280;16778;48.154;15.094;2022-07-19T06:14:05;99438.84;;;20.27;100.00
8162;BME280;16778;48.154;15.094;2022-07-19T06:16:33;99434.31;;;20.43;100.00
8162;BME280;16778;48.154;15.094;2022-07-19T06:18:58;99436.81;;;20.49;100.00
8162;BME280;16778;48.154;15.094;2022-07-19T06:21:25;99443.28;;;20.65;100.00
8162;BME280;16778;48.154;15.094;2022-07-19T06:23:51;99436.00;;;20.91;100.00
8162;BME280;16778;48.154;15.094;2022-07-19T06:26:17;99440.50;;;21.07;100.00
8162;BME280;16778;48.154;15.094;2022-07-19T06:28:43;99442.78;;;21.20;100.00
8162;BME280;16778;48.154;15.094;2022-07-19T06:31:11;99438.44;;;21.34;100.00
8162;BME280;16778;48.154;15.094;2022-07-19T06:33:45;99439.56;;;21.38;100.00
8162;BME280;16778;48.154;15.094;2022-07-19T06:36:12;99434.09;;;21.58;100.00
8162;BME280;16778;48.154;15.094;2022-07-19T06:38:39;99434.41;;;21.72;100.00
8162;BME280;16778;48.154;15.094;2022-07-19T06:41:06;99440.03;;;21.92;100.00
8162;BME280;16778;48.154;15.094;2022-07-19T06:43:32;99437.78;;;22.04;100.00
8162;BME280;16778;48.154;15.094;2022-07-19T06:45:58;99430.63;;;22.13;100.00
8162;BME280;16778;48.154;15.094;2022-07-19T06:48:24;99430.91;;;22.22;100.00
8162;BME280;16778;48.154;15.094;2022-07-19T06:50:50;99426.47;;;22.31;100.00
8162;BME280;16778;48.154;15.094;2022-07-19T06:53:16;99431.72;;;22.47;100.00
8162;BME280;16778;48.154;15.094;2022-07-19T06:55:42;99427.28;;;22.67;100.00
8162;BME280;16778;48.154;15.094;2022-07-19T06:58:08;99430.84;;;22.82;100.00
8162;BME280;16778;48.154;15.094;2022-07-19T07:00:34;99429.97;;;22.97;100.00
8162;BME280;16778;48.154;15.094;2022-07-19T07:03:00;99424.13;;;23.08;100.00
8162;BME280;16778;48.154;15.094;2022-07-19T07:05:26;99423.28;;;23.18;100.00
8162;BME280;16778;48.154;15.094;2022-07-19T07:07:52;99421.88;;;23.21;99.31
8162;BME280;16778;48.154;15.094;2022-07-19T07:10:19;99432.91;;;23.31;100.00
8162;BME280;16778;48.154;15.094;2022-07-19T07:12:45;99430.16;;;23.41;100.00
8162;BME280;16778;48.154;15.094;2022-07-19T07:15:11;99430.63;;;23.53;100.00
8162;BME280;16778;48.154;15.094;2022-07-19T07:17:37;99427.81;;;23.63;98.57
8162;BME280;16778;48.154;15.094;2022-07-19T07:20:04;99424.47;;;23.61;96.78
8162;BME280;16778;48.154;15.094;2022-07-19T07:22:33;99419.19;;;23.64;100.00
8162;BME280;16778;48.154;15.094;2022-07-19T07:24:59;99424.03;;;23.88;96.88
8162;BME280;16778;48.154;15.094;2022-07-19T07:27:25;99426.81;;;23.88;95.55
8162;BME280;16778;48.154;15.094;2022-07-19T07:29:51;99423.06;;;24.07;98.48
8162;BME280;16778;48.154;15.094;2022-07-19T07:32:18;99425.13;;;24.31;100.00
8162;BME280;16778;48.154;15.094;2022-07-19T07:34:44;99424.41;;;24.49;97.46
8162;BME280;16778;48.154;15.094;2022-07-19T07:37:10;99426.78;;;24.60;94.71
8162;BME280;16778;48.154;15.094;2022-07-19T07:39:36;99424.50;;;24.67;94.42
8162;BME280;16778;48.154;15.094;2022-07-19T07:42:04;99423.84;;;24.81;90.81
8162;BME280;16778;48.154;15.094;2022-07-19T07:44:30;99417.72;;;24.78;91.53
8162;BME280;16778;48.154;15.094;2022-07-19T07:46:56;99419.41;;;24.79;92.74
8162;BME280;16778;48.154;15.094;2022-07-19T07:49:23;99410.06;;;24.94;92.57
8162;BME280;16778;48.154;15.094;2022-07-19T07:51:49;99415.63;;;24.94;87.65
8162;BME280;16778;48.154;15.094;2022-07-19T07:54:15;99408.66;;;24.97;86.64
8162;BME280;16778;48.154;15.094;2022-07-19T07:56:41;99409.28;;;25.12;86.79
8162;BME280;16778;48.154;15.094;2022-07-19T07:59:07;99406.84;;;25.29;82.71
8162;BME280;16778;48.154;15.094;2022-07-19T08:01:33;99409.81;;;25.38;78.72
8162;BME280;16778;48.154;15.094;2022-07-19T08:04:00;99405.16;;;25.33;75.63
8162;BME280;16778;48.154;15.094;2022-07-19T08:06:26;99410.19;;;25.31;77.97
8162;BME280;16778;48.154;15.094;2022-07-19T08:08:52;99412.66;;;25.57;69.96
8162;BME280;16778;48.154;15.094;2022-07-19T08:11:18;99407.41;;;25.74;71.48
8162;BME280;16778;48.154;15.094;2022-07-19T08:13:44;99405.97;;;25.95;68.66
8162;BME280;16778;48.154;15.094;2022-07-19T08:16:09;99404.53;;;25.98;64.94
8162;BME280;16778;48.154;15.094;2022-07-19T08:18:35;99408.19;;;26.12;65.17
8162;BME280;16778;48.154;15.094;2022-07-19T08:21:01;99409.63;;;26.28;63.51
8162;BME280;16778;48.154;15.094;2022-07-19T08:23:27;99400.50;;;26.41;67.70
8162;BME280;16778;48.154;15.094;2022-07-19T08:25:53;99401.25;;;26.46;63.80
8162;BME280;16778;48.154;15.094;2022-07-19T08:28:19;99397.31;;;26.61;62.41
8162;BME280;16778;48.154;15.094;2022-07-19T08:30:44;99403.75;;;26.75;63.67
8162;BME280;16778;48.154;15.094;2022-07-19T08:33:10;99403.00;;;26.88;62.32
8162;BME280;16778;48.154;15.094;2022-07-19T08:35:36;99401.44;;;26.96;53.70
8162;BME280;16778;48.154;15.094;2022-07-19T08:38:02;99399.88;;;26.90;55.01
8162;BME280;16778;48.154;15.094;2022-07-19T08:40:30;99390.41;;;27.04;53.46
8162;BME280;16778;48.154;15.094;2022-07-19T08:42:58;99390.91;;;27.20;50.45
8162;BME280;16778;48.154;15.094;2022-07-19T08:45:26;99386.97;;;27.21;49.98
8162;BME280;16778;48.154;15.094;2022-07-19T08:47:53;99386.97;;;27.35;50.73
8162;BME280;16778;48.154;15.094;2022-07-19T08:50:20;99385.13;;;27.44;50.97
8162;BME280;16778;48.154;15.094;2022-07-19T08:52:46;99392.97;;;27.55;50.52
8162;BME280;16778;48.154;15.094;2022-07-19T08:55:13;99394.50;;;27.61;48.88
8162;BME280;16778;48.154;15.094;2022-07-19T08:57:39;99384.31;;;27.79;50.50
8162;BME280;16778;48.154;15.094;2022-07-19T09:00:27;99378.78;;;27.88;49.45
8162;BME280;16778;48.154;15.094;2022-07-19T09:05:22;99385.22;;;27.88;49.78
8162;BME280;16778;48.154;15.094;2022-07-19T09:08:05;99382.63;;;27.92;47.99
8162;BME280;16778;48.154;15.094;2022-07-19T09:10:33;99384.47;;;27.96;47.66
8162;BME280;16778;48.154;15.094;2022-07-19T09:13:14;99368.63;;;28.05;48.39
8162;BME280;16778;48.154;15.094;2022-07-19T09:15:43;99372.94;;;28.11;48.12
8162;BME280;16778;48.154;15.094;2022-07-19T09:20:49;99367.41;;;28.42;48.28
8162;BME280;16778;48.154;15.094;2022-07-19T09:23:16;99368.59;;;28.50;47.22
8162;BME280;16778;48.154;15.094;2022-07-19T09:25:49;99359.75;;;28.56;46.11
8162;BME280;16778;48.154;15.094;2022-07-19T09:28:18;99359.69;;;28.70;46.65
8162;BME280;16778;48.154;15.094;2022-07-19T09:30:47;99362.06;;;28.85;46.94
8162;BME280;16778;48.154;15.094;2022-07-19T09:35:48;99353.78;;;29.11;42.73
8162;BME280;16778;48.154;15.094;2022-07-19T09:38:27;99356.72;;;29.14;43.74
8162;BME280;16778;48.154;15.094;2022-07-19T09:41:18;99348.84;;;29.16;45.57
8162;BME280;16778;48.154;15.094;2022-07-19T09:44:01;99343.09;;;29.13;45.37
8162;BME280;16778;48.154;15.094;2022-07-19T09:46:40;99347.19;;;29.15;47.35
8162;BME280;16778;48.154;15.094;2022-07-19T09:49:16;99346.94;;;29.43;46.13
8162;BME280;16778;48.154;15.094;2022-07-19T09:51:51;99343.66;;;29.41;44.51
8162;BME280;16778;48.154;15.094;2022-07-19T09:54:21;99342.03;;;29.48;45.39
8162;BME280;16778;48.154;15.094;2022-07-19T09:56:49;99340.41;;;29.56;45.27
8162;BME280;16778;48.154;15.094;2022-07-19T09:59:20;99333.94;;;29.38;46.47
8162;BME280;16778;48.154;15.094;2022-07-19T10:01:49;99334.94;;;29.68;44.91
8162;BME280;16778;48.154;15.094;2022-07-19T10:04:21;99329.19;;;29.64;45.59
8162;BME280;16778;48.154;15.094;2022-07-19T10:06:49;99328.53;;;29.67;45.72
8162;BME280;16778;48.154;15.094;2022-07-19T10:09:18;99317.69;;;29.83;47.89
8162;BME280;16778;48.154;15.094;2022-07-19T10:11:44;99321.28;;;30.09;44.48
8162;BME280;16778;48.154;15.094;2022-07-19T10:14:11;99327.84;;;30.30;42.18
8162;BME280;16778;48.154;15.094;2022-07-19T10:17:30;99324.38;;;30.33;39.17
8162;BME280;16778;48.154;15.094;2022-07-19T10:19:48;99324.47;;;30.63;40.06
8162;BME280;16778;48.154;15.094;2022-07-19T10:22:20;99320.19;;;30.65;40.00
8162;BME280;16778;48.154;15.094;2022-07-19T10:24:54;99321.53;;;30.59;40.50
8162;BME280;16778;48.154;15.094;2022-07-19T10:32:43;99313.56;;;30.70;38.12
8162;BME280;16778;48.154;15.094;2022-07-19T10:37:53;99318.78;;;30.80;39.52
8162;BME280;16778;48.154;15.094;2022-07-19T10:43:21;99303.09;;;31.17;38.48
8162;BME280;16778;48.154;15.094;2022-07-19T10:48:39;99295.50;;;31.46;39.46
8162;BME280;16778;48.154;15.094;2022-07-19T10:51:30;99294.75;;;31.58;40.32
8162;BME280;16778;48.154;15.094;2022-07-19T10:54:07;99294.72;;;31.37;38.26
8162;BME280;16778;48.154;15.094;2022-07-19T10:56:38;99295.72;;;31.33;38.48
8162;BME280;16778;48.154;15.094;2022-07-19T10:59:11;99290.72;;;31.38;37.98
8162;BME280;16778;48.154;15.094;2022-07-19T11:01:52;99285.69;;;31.02;40.30
8162;BME280;16778;48.154;15.094;2022-07-19T11:04:46;99277.38;;;31.15;38.97
8162;BME280;16778;48.154;15.094;2022-07-19T11:07:19;99275.25;;;31.12;38.72
8162;BME280;16778;48.154;15.094;2022-07-19T11:10:05;99275.19;;;31.20;37.36
8162;BME280;16778;48.154;15.094;2022-07-19T11:12:36;99275.59;;;31.10;37.57
8162;BME280;16778;48.154;15.094;2022-07-19T11:15:08;99271.28;;;31.13;36.84
8162;BME280;16778;48.154;15.094;2022-07-19T11:17:35;99277.78;;;31.05;36.82
8162;BME280;16778;48.154;15.094;2022-07-19T11:20:10;99276.00;;;31.21;36.07
8162;BME280;16778;48.154;15.094;2022-07-19T11:22:47;99275.94;;;31.29;35.03
8162;BME280;16778;48.154;15.094;2022-07-19T11:25:16;99274.59;;;31.35;35.18
8162;BME280;16778;48.154;15.094;2022-07-19T11:27:48;99272.03;;;31.42;33.37
8162;BME280;16778;48.154;15.094;2022-07-19T11:30:15;99272.69;;;31.48;32.21
8162;BME280;16778;48.154;15.094;2022-07-19T11:32:42;99260.19;;;31.37;33.24
8162;BME280;16778;48.154;15.094;2022-07-19T11:35:11;99264.06;;;31.53;33.59
8162;BME280;16778;48.154;15.094;2022-07-19T11:37:41;99265.50;;;31.59;32.16
8162;BME280;16778;48.154;15.094;2022-07-19T11:40:09;99261.25;;;31.74;32.43
8162;BME280;16778;48.154;15.094;2022-07-19T11:42:44;99261.16;;;31.82;31.61
8162;BME280;16778;48.154;15.094;2022-07-19T11:45:24;99262.47;;;31.64;32.00
8162;BME280;16778;48.154;15.094;2022-07-19T11:47:56;99262.13;;;31.66;32.14
8162;BME280;16778;48.154;15.094;2022-07-19T11:50:26;99260.34;;;31.82;31.79
8162;BME280;16778;48.154;15.094;2022-07-19T11:52:57;99256.53;;;31.98;31.94
8162;BME280;16778;48.154;15.094;2022-07-19T11:55:36;99254.25;;;32.12;30.35
8162;BME280;16778;48.154;15.094;2022-07-19T11:58:09;99255.44;;;31.91;30.75
8162;BME280;16778;48.154;15.094;2022-07-19T12:00:38;99247.75;;;32.00;31.87
8162;BME280;16778;48.154;15.094;2022-07-19T12:03:18;99246.94;;;31.99;31.16
8162;BME280;16778;48.154;15.094;2022-07-19T12:06:00;99245.63;;;31.97;32.88
8162;BME280;16778;48.154;15.094;2022-07-19T12:08:43;99244.09;;;32.32;33.28
8162;BME280;16778;48.154;15.094;2022-07-19T12:11:18;99253.41;;;32.57;32.31
8162;BME280;16778;48.154;15.094;2022-07-19T12:13:45;99240.31;;;32.73;30.99
8162;BME280;16778;48.154;15.094;2022-07-19T12:16:12;99246.16;;;32.56;31.65
8162;BME280;16778;48.154;15.094;2022-07-19T12:26:40;99232.91;;;32.56;30.19
8162;BME280;16778;48.154;15.094;2022-07-19T12:29:32;99231.16;;;32.64;29.67
8162;BME280;16778;48.154;15.094;2022-07-19T12:32:10;99237.63;;;32.64;31.21
8162;BME280;16778;48.154;15.094;2022-07-19T12:34:47;99220.84;;;32.80;29.81
8162;BME280;16778;48.154;15.094;2022-07-19T12:37:32;99220.72;;;33.01;30.01
8162;BME280;16778;48.154;15.094;2022-07-19T12:40:21;99221.88;;;33.00;29.55
8162;BME280;16778;48.154;15.094;2022-07-19T12:42:50;99221.06;;;33.11;30.63
8162;BME280;16778;48.154;15.094;2022-07-19T12:45:31;99212.16;;;32.85;30.29
8162;BME280;16778;48.154;15.094;2022-07-19T12:47:58;99209.44;;;33.01;30.46
8162;BME280;16778;48.154;15.094;2022-07-19T12:50:38;99207.09;;;33.15;31.00
8162;BME280;16778;48.154;15.094;2022-07-19T12:53:06;99200.16;;;33.12;29.17
8162;BME280;16778;48.154;15.094;2022-07-19T12:55:34;99209.81;;;33.11;29.98
8162;BME280;16778;48.154;15.094;2022-07-19T12:58:03;99204.81;;;33.33;30.75
8162;BME280;16778;48.154;15.094;2022-07-19T13:00:31;99199.72;;;33.38;30.77
8162;BME280;16778;48.154;15.094;2022-07-19T13:02:58;99199.22;;;33.60;30.03
8162;BME280;16778;48.154;15.094;2022-07-19T13:05:26;99193.47;;;33.57;29.26
8162;BME280;16778;48.154;15.094;2022-07-19T13:07:52;99192.28;;;33.58;29.96
8162;BME280;16778;48.154;15.094;2022-07-19T13:10:19;99180.59;;;33.71;29.64
8162;BME280;16778;48.154;15.094;2022-07-19T13:12:45;99189.47;;;33.58;28.81
8162;BME280;16778;48.154;15.094;2022-07-19T13:15:13;99184.03;;;33.37;29.25
8162;BME280;16778;48.154;15.094;2022-07-19T13:17:39;99181.50;;;33.48;29.96
8162;BME280;16778;48.154;15.094;2022-07-19T13:20:08;99183.59;;;33.63;30.59
8162;BME280;16778;48.154;15.094;2022-07-19T13:22:36;99181.69;;;33.67;31.00
8162;BME280;16778;48.154;15.094;2022-07-19T13:25:03;99183.47;;;33.87;29.03
8162;BME280;16778;48.154;15.094;2022-07-19T13:27:29;99176.91;;;33.83;29.18
8162;BME280;16778;48.154;15.094;2022-07-19T13:29:55;99177.00;;;33.87;28.29